Time;durP1;ratioP1;P1;durP2;ratioP2;P2;SDS_P1;SDS_P2;PMS_P1;PMS_P2;Temp;Humidity;BMP_temperature;BMP_pressure;BME280_temperature;BME280_humidity;BME280_pressure;Samples;Min_cycle;Max_cycle;Signal;HPM_P1;HPM_P2
2022/08/28 00:00:43;;;;;;;25.40;14.85;;;19.80;99.90;;;;;;5086511;28;20881;-54
2022/08/28 00:03:12;;;;;;;26.83;14.23;;;19.90;99.90;;;;;;5084998;28;20391;-54
2022/08/28 00:05:38;;;;;;;24.23;14.38;;;20.00;99.90;;;;;;5082393;28;20390;-54
2022/08/28 00:08:05;;;;;;;22.85;14.13;;;20.10;99.90;;;;;;5084329;28;20465;-54
2022/08/28 00:10:31;;;;;;;25.10;14.50;;;20.20;99.90;;;;;;5072078;28;20502;-54
2022/08/28 00:12:57;;;;;;;26.17;14.65;;;20.20;99.90;;;;;;5070967;28;20415;-54
2022/08/28 00:15:27;;;;;;;26.03;14.53;;;20.20;99.90;;;;;;5088566;28;20467;-54
2022/08/28 00:17:52;;;;;;;28.80;15.75;;;20.10;99.90;;;;;;5089726;28;20390;-54
2022/08/28 00:20:20;;;;;;;28.52;15.35;;;20.10;99.90;;;;;;5090767;28;20383;-54
2022/08/28 00:22:47;;;;;;;25.08;15.00;;;20.20;99.90;;;;;;5090008;28;20366;-54
2022/08/28 00:25:15;;;;;;;26.13;14.68;;;20.20;99.90;;;;;;5090759;28;20382;-54
2022/08/28 00:27:53;;;;;;;24.20;14.88;;;20.20;99.90;;;;;;5090245;28;20496;-56
2022/08/28 00:30:22;;;;;;;28.00;14.80;;;20.30;99.90;;;;;;5090680;28;20439;-53
2022/08/28 00:32:49;;;;;;;31.00;15.45;;;20.30;99.90;;;;;;5090385;28;20432;-54
2022/08/28 00:35:16;;;;;;;25.95;15.50;;;20.30;99.90;;;;;;5091277;28;20378;-54
2022/08/28 00:37:42;;;;;;;24.35;14.90;;;20.30;99.90;;;;;;5090871;28;20503;-56
2022/08/28 00:40:09;;;;;;;27.60;14.67;;;20.20;99.90;;;;;;5087987;28;20394;-53
2022/08/28 00:42:35;;;;;;;24.77;15.27;;;20.20;99.90;;;;;;5079957;28;20888;-54
2022/08/28 00:45:01;;;;;;;26.13;14.52;;;20.20;99.90;;;;;;5070211;28;20396;-54
2022/08/28 00:47:27;;;;;;;27.35;14.68;;;20.10;99.90;;;;;;5070741;28;20791;-53
2022/08/28 00:49:54;;;;;;;25.13;15.27;;;20.20;99.90;;;;;;5070159;28;20380;-53
2022/08/28 00:52:23;;;;;;;28.13;16.10;;;20.10;99.90;;;;;;5070555;28;20400;-54
2022/08/28 00:55:10;;;;;;;29.67;15.90;;;20.10;99.90;;;;;;5069424;28;20856;-53
2022/08/28 00:57:39;;;;;;;27.23;15.90;;;20.00;99.90;;;;;;5070580;28;20461;-53
2022/08/28 01:00:08;;;;;;;29.67;16.02;;;20.00;99.90;;;;;;5069972;28;20541;-53
2022/08/28 01:02:34;;;;;;;26.15;15.77;;;19.90;99.90;;;;;;5070682;28;20384;-54
2022/08/28 01:04:59;;;;;;;27.37;15.70;;;19.90;99.90;;;;;;5069701;28;20376;-54
2022/08/28 01:07:25;;;;;;;26.70;15.52;;;20.00;99.90;;;;;;5069501;28;20384;-53
2022/08/28 01:09:53;;;;;;;27.08;15.15;;;20.00;99.90;;;;;;5068923;28;20376;-54
2022/08/28 01:12:23;;;;;;;26.85;16.17;;;20.00;99.90;;;;;;5070192;28;20514;-53
2022/08/28 01:14:52;;;;;;;29.17;16.40;;;20.00;99.90;;;;;;5069368;28;20779;-53
2022/08/28 01:17:22;;;;;;;28.97;15.80;;;20.00;99.90;;;;;;5070003;28;20384;-53
2022/08/28 01:19:56;;;;;;;28.25;16.05;;;20.00;99.90;;;;;;5072081;28;20394;-53
2022/08/28 01:22:31;;;;;;;30.08;17.38;;;20.10;99.90;;;;;;5078926;28;20376;-53
2022/08/28 01:24:59;;;;;;;28.43;16.07;;;20.10;99.90;;;;;;5069583;28;20817;-54
2022/08/28 01:27:26;;;;;;;27.00;14.70;;;20.10;99.90;;;;;;5069434;28;20422;-54
2022/08/28 01:29:51;;;;;;;29.38;16.15;;;20.20;99.90;;;;;;5085659;28;20442;-54
2022/08/28 01:32:36;;;;;;;29.53;15.87;;;20.20;99.90;;;;;;5089668;28;20440;-54
2022/08/28 01:35:05;;;;;;;26.40;14.77;;;20.10;99.90;;;;;;5088866;28;21116;-54
2022/08/28 01:37:31;;;;;;;27.50;15.52;;;20.20;99.90;;;;;;5089187;28;20435;-54
2022/08/28 01:39:57;;;;;;;31.67;15.87;;;20.10;99.90;;;;;;5088218;28;20734;-54
2022/08/28 01:42:23;;;;;;;26.27;16.00;;;20.10;99.90;;;;;;5089499;28;20889;-54
2022/08/28 01:44:51;;;;;;;29.10;17.35;;;20.10;99.90;;;;;;5088402;28;20394;-54
2022/08/28 01:47:17;;;;;;;30.30;17.90;;;20.10;99.90;;;;;;5089772;28;20611;-54
2022/08/28 01:49:42;;;;;;;31.05;17.00;;;20.10;99.90;;;;;;5088923;28;20502;-57
2022/08/28 01:52:08;;;;;;;33.03;16.75;;;20.00;99.90;;;;;;5089620;28;20485;-54
2022/08/28 01:54:35;;;;;;;31.10;17.10;;;20.00;99.90;;;;;;5081596;28;20390;-54
2022/08/28 01:57:01;;;;;;;35.00;18.02;;;20.00;99.90;;;;;;5078166;28;20386;-54
2022/08/28 01:59:26;;;;;;;36.10;18.88;;;19.90;99.90;;;;;;5089519;28;20382;-54
2022/08/28 02:01:54;;;;;;;33.63;18.93;;;19.90;99.90;;;;;;5088218;28;20398;-54
2022/08/28 02:04:20;;;;;;;37.78;19.45;;;19.80;99.90;;;;;;5081051;28;20415;-54
2022/08/28 02:06:46;;;;;;;36.58;19.73;;;19.70;99.90;;;;;;5075047;28;20390;-54
2022/08/28 02:09:11;;;;;;;35.43;19.70;;;19.70;99.90;;;;;;5073886;28;20441;-53
2022/08/28 02:11:40;;;;;;;39.47;20.40;;;19.70;99.90;;;;;;5068790;28;20403;-53
2022/08/28 02:14:05;;;;;;;36.28;18.83;;;19.80;99.90;;;;;;5086742;28;20481;-53
2022/08/28 02:16:31;;;;;;;35.55;18.55;;;19.80;99.90;;;;;;5089026;28;20805;-54
2022/08/28 02:18:57;;;;;;;39.90;19.20;;;19.80;99.90;;;;;;5079024;28;20737;-53
2022/08/28 02:21:24;;;;;;;36.50;18.13;;;19.80;99.90;;;;;;5068705;28;20384;-53
2022/08/28 02:23:49;;;;;;;35.67;19.27;;;19.80;99.90;;;;;;5049560;28;20396;-53
2022/08/28 02:26:15;;;;;;;44.45;20.30;;;19.80;99.90;;;;;;5068686;28;20376;-53
2022/08/28 02:28:41;;;;;;;35.23;18.50;;;19.80;99.90;;;;;;5049805;28;20780;-53
2022/08/28 02:31:08;;;;;;;37.08;19.92;;;19.80;99.90;;;;;;5076735;28;20406;-53
2022/08/28 02:33:37;;;;;;;39.30;19.98;;;19.80;99.90;;;;;;5087991;28;20477;-53
2022/08/28 02:36:03;;;;;;;39.70;21.15;;;19.80;99.90;;;;;;5087841;28;20398;-53
2022/08/28 02:38:29;;;;;;;37.22;19.92;;;19.80;99.90;;;;;;5088620;28;20434;-53
2022/08/28 02:40:54;;;;;;;41.20;20.33;;;19.80;99.90;;;;;;5087277;28;20482;-53
2022/08/28 02:43:20;;;;;;;34.87;18.67;;;19.80;99.90;;;;;;5088126;28;20484;-53
2022/08/28 02:45:45;;;;;;;42.30;20.13;;;19.80;99.90;;;;;;5087813;28;20390;-54
2022/08/28 02:48:11;;;;;;;36.70;19.93;;;19.80;99.90;;;;;;5088580;28;20459;-53
2022/08/28 02:50:37;;;;;;;38.97;19.33;;;19.90;99.90;;;;;;5088290;28;20413;-53
2022/08/28 02:53:02;;;;;;;37.25;19.45;;;20.00;99.90;;;;;;5087879;28;20515;-53
2022/08/28 02:55:28;;;;;;;38.67;20.37;;;20.00;99.90;;;;;;5088506;28;20397;-53
2022/08/28 02:57:54;;;;;;;37.10;19.57;;;19.80;99.90;;;;;;5087587;28;20402;-53
2022/08/28 03:00:23;;;;;;;38.83;19.45;;;19.70;99.90;;;;;;5088330;28;20467;-53
2022/08/28 03:02:49;;;;;;;40.23;20.03;;;19.80;99.90;;;;;;5087379;28;20897;-53
2022/08/28 03:05:18;;;;;;;34.63;19.20;;;19.80;99.90;;;;;;5088312;28;20370;-54
2022/08/28 03:07:43;;;;;;;35.58;19.50;;;19.80;99.90;;;;;;5087892;28;20394;-56
2022/08/28 03:10:09;;;;;;;38.17;20.53;;;19.90;99.90;;;;;;5087882;28;20421;-54
2022/08/28 03:12:35;;;;;;;36.63;19.70;;;19.80;99.90;;;;;;5087583;28;20413;-53
2022/08/28 03:15:02;;;;;;;42.33;19.90;;;19.80;99.90;;;;;;5087424;28;20646;-53
2022/08/28 03:17:27;;;;;;;41.22;19.70;;;19.80;99.90;;;;;;5087526;28;20450;-53
2022/08/28 03:19:53;;;;;;;39.38;19.98;;;19.80;99.90;;;;;;5086889;28;20440;-52
2022/08/28 03:23:24;;;;;;;37.73;18.57;;;19.80;99.90;;;;;;5088231;28;20382;-52
2022/08/28 03:25:08;;;;;;;35.50;18.08;;;19.80;99.90;;;;;;5086750;28;20392;-52
2022/08/28 03:27:34;;;;;;;35.05;18.88;;;20.70;99.90;;;;;;5087936;28;20410;-52
2022/08/28 03:30:01;;;;;;;38.77;20.07;;;19.90;99.90;;;;;;5086701;28;20405;-52
2022/08/28 03:32:27;;;;;;;34.67;18.95;;;19.80;99.90;;;;;;5091222;28;20431;-53
2022/08/28 03:34:53;;;;;;;34.53;18.45;;;19.80;99.90;;;;;;5091481;28;20866;-53
2022/08/28 03:37:19;;;;;;;34.57;17.17;;;19.70;99.90;;;;;;5092043;28;20480;-51
2022/08/28 03:39:45;;;;;;;32.35;17.85;;;19.60;99.90;;;;;;5091300;28;20510;-55
2022/08/28 03:42:11;;;;;;;34.07;17.57;;;19.60;99.90;;;;;;5091322;28;20501;-55
2022/08/28 03:44:37;;;;;;;40.03;18.95;;;19.60;99.90;;;;;;5091208;28;20932;-55
2022/08/28 03:47:03;;;;;;;34.05;18.67;;;19.60;99.90;;;;;;5091179;28;20472;-52
2022/08/28 03:49:29;;;;;;;37.45;18.77;;;19.70;99.90;;;;;;5071739;28;20425;-52
2022/08/28 03:51:56;;;;;;;37.60;18.83;;;19.70;99.90;;;;;;5074963;28;20505;-53
2022/08/28 03:54:21;;;;;;;35.83;17.73;;;19.70;99.90;;;;;;5091916;28;20531;-55
2022/08/28 03:56:47;;;;;;;35.88;18.55;;;19.60;99.90;;;;;;5090741;28;20775;-55
2022/08/28 03:59:13;;;;;;;34.70;18.75;;;19.60;99.90;;;;;;5091218;28;20381;-54
2022/08/28 04:01:39;;;;;;;31.20;17.70;;;19.60;99.90;;;;;;5090798;28;20481;-54
2022/08/28 04:04:05;;;;;;;35.97;18.85;;;19.60;99.90;;;;;;5090614;28;20386;-54
2022/08/28 04:06:30;;;;;;;31.40;18.05;;;19.60;99.90;;;;;;5091274;28;20382;-54
2022/08/28 04:08:56;;;;;;;30.90;16.70;;;19.60;99.90;;;;;;5089931;28;20392;-54
2022/08/28 04:11:22;;;;;;;34.50;18.30;;;19.50;99.90;;;;;;5091419;28;20889;-53
2022/08/28 04:13:48;;;;;;;31.95;17.65;;;19.50;99.90;;;;;;5090439;28;20466;-54
2022/08/28 04:16:17;;;;;;;32.30;17.43;;;19.50;99.90;;;;;;5090784;28;20402;-53
2022/08/28 04:18:45;;;;;;;31.95;17.90;;;19.60;99.90;;;;;;5091104;28;20465;-54
2022/08/28 04:21:22;;;;;;;31.25;16.90;;;19.70;99.90;;;;;;5090982;28;20390;-54
2022/08/28 04:23:48;;;;;;;33.25;18.20;;;19.70;99.90;;;;;;5090170;28;20484;-56
2022/08/28 04:26:17;;;;;;;35.22;18.08;;;19.70;99.90;;;;;;5091277;28;20469;-54
2022/08/28 04:28:43;;;;;;;31.17;17.33;;;19.80;99.90;;;;;;5090616;28;20837;-54
2022/08/28 04:31:09;;;;;;;31.83;17.90;;;19.80;99.90;;;;;;5089745;28;20491;-54
2022/08/28 04:33:36;;;;;;;33.17;17.83;;;19.80;99.90;;;;;;5090910;28;20382;-53
2022/08/28 04:36:08;;;;;;;37.92;19.15;;;19.90;99.90;;;;;;5089841;28;20397;-54
2022/08/28 04:38:34;;;;;;;37.10;17.80;;;20.00;99.90;;;;;;5090553;28;20386;-54
2022/08/28 04:41:06;;;;;;;33.47;17.80;;;20.00;99.90;;;;;;5089299;28;20886;-55
2022/08/28 04:43:32;;;;;;;35.70;20.42;;;20.00;99.90;;;;;;5089184;28;20527;-55
2022/08/28 04:45:58;;;;;;;36.70;19.80;;;20.10;99.90;;;;;;5089634;28;20503;-54
2022/08/28 04:48:24;;;;;;;34.28;18.23;;;20.00;99.90;;;;;;5090518;28;20503;-53
2022/08/28 04:50:50;;;;;;;32.92;18.17;;;20.00;99.90;;;;;;5089348;28;20489;-54
2022/08/28 04:53:18;;;;;;;32.93;17.50;;;20.00;99.90;;;;;;5090270;28;20394;-53
2022/08/28 04:55:49;;;;;;;32.80;18.25;;;20.00;99.90;;;;;;5089997;28;20389;-56
2022/08/28 04:58:16;;;;;;;31.00;17.38;;;20.10;99.90;;;;;;5090436;28;20444;-53
2022/08/28 05:00:44;;;;;;;36.17;19.38;;;20.10;99.90;;;;;;5089945;28;20394;-53
2022/08/28 05:03:11;;;;;;;31.35;18.08;;;20.10;99.90;;;;;;5089646;28;20418;-54
2022/08/28 05:05:41;;;;;;;31.73;17.73;;;20.20;99.90;;;;;;5090744;28;20463;-53
2022/08/28 05:08:06;;;;;;;34.28;18.58;;;20.20;99.90;;;;;;5089406;28;20394;-53
2022/08/28 05:10:34;;;;;;;30.23;18.20;;;20.30;99.90;;;;;;5089531;28;20394;-53
2022/08/28 05:12:59;;;;;;;32.78;17.70;;;20.20;99.90;;;;;;5088936;28;20413;-54
2022/08/28 05:15:25;;;;;;;36.10;18.53;;;20.00;99.90;;;;;;5089611;28;21117;-53
2022/08/28 05:17:50;;;;;;;32.90;17.53;;;19.80;99.90;;;;;;5081139;28;20383;-53
2022/08/28 05:20:16;;;;;;;31.67;16.55;;;19.90;99.90;;;;;;5073770;28;20492;-54
2022/08/28 05:22:42;;;;;;;33.13;17.02;;;20.00;99.90;;;;;;5089398;28;20394;-54
2022/08/28 05:25:07;;;;;;;31.20;16.50;;;20.10;99.90;;;;;;5088487;28;21260;-55
2022/08/28 05:27:34;;;;;;;35.07;17.77;;;20.20;99.90;;;;;;5089141;28;20762;-54
2022/08/28 05:29:59;;;;;;;27.42;16.33;;;20.20;99.90;;;;;;5088672;28;20419;-55
2022/08/28 05:32:25;;;;;;;28.93;15.70;;;20.20;99.90;;;;;;5083765;28;20424;-54
2022/08/28 05:34:53;;;;;;;29.20;16.83;;;20.20;99.90;;;;;;5076975;28;20394;-54
2022/08/28 05:37:19;;;;;;;32.30;16.20;;;20.30;99.90;;;;;;5088250;28;20404;-54
2022/08/28 05:39:45;;;;;;;26.85;15.98;;;20.50;99.90;;;;;;5084321;28;20477;-56
2022/08/28 05:42:10;;;;;;;27.80;15.20;;;20.50;99.90;;;;;;5085993;28;20485;-54
2022/08/28 05:44:36;;;;;;;30.87;15.87;;;20.30;99.90;;;;;;5088750;28;20843;-54
2022/08/28 05:47:02;;;;;;;26.10;14.37;;;20.10;99.90;;;;;;5088126;28;20413;-54
2022/08/28 05:49:27;;;;;;;26.13;15.77;;;20.00;99.90;;;;;;5080306;28;20388;-54
2022/08/28 05:51:53;;;;;;;25.90;15.60;;;20.20;99.90;;;;;;5060593;28;20458;-54
2022/08/28 05:54:18;;;;;;;27.40;16.30;;;20.20;99.90;;;;;;5076049;28;20384;-54
2022/08/28 05:56:45;;;;;;;35.80;19.60;;;20.30;99.90;;;;;;5072028;28;20497;-56
2022/08/28 05:59:12;;;;;;;21.00;13.17;;;20.40;99.90;;;;;;5088756;28;20386;-54
2022/08/28 06:01:46;;;;;;;24.20;14.73;;;20.50;99.90;;;;;;5089203;28;20574;-54
2022/08/28 06:04:16;;;;;;;24.70;14.90;;;20.50;99.90;;;;;;5065865;28;20921;-55
2022/08/28 06:06:42;;;;;;;27.20;15.40;;;20.30;99.90;;;;;;5079434;28;20846;-54
2022/08/28 06:09:11;;;;;;;26.98;14.50;;;20.30;99.90;;;;;;5070309;28;20528;-54
2022/08/28 06:11:37;;;;;;;24.70;14.77;;;20.10;99.90;;;;;;5088290;28;20420;-54
2022/08/28 06:14:09;;;;;;;25.95;15.15;;;20.10;99.90;;;;;;5083681;28;20387;-54
2022/08/28 06:16:41;;;;;;;28.38;15.35;;;20.00;99.90;;;;;;5088413;28;20393;-54
2022/08/28 06:19:09;;;;;;;28.42;15.07;;;20.00;99.90;;;;;;5088324;28;20410;-54
2022/08/28 06:21:36;;;;;;;26.83;15.03;;;20.10;99.90;;;;;;5081832;28;20402;-54
2022/08/28 06:24:03;;;;;;;25.60;14.73;;;20.10;99.90;;;;;;5087267;28;20402;-59
2022/08/28 06:26:29;;;;;;;23.02;13.65;;;20.10;99.90;;;;;;5087453;28;20394;-60
2022/08/28 06:29:02;;;;;;;26.57;14.80;;;20.30;99.90;;;;;;5087398;28;20410;-61
2022/08/28 06:31:29;;;;;;;25.73;14.13;;;20.40;99.90;;;;;;5088530;28;20949;-60
2022/08/28 06:33:58;;;;;;;21.33;14.02;;;20.60;99.90;;;;;;5086709;28;20597;-60
2022/08/28 06:36:26;;;;;;;23.42;13.65;;;20.60;99.90;;;;;;5088365;28;20382;-61
2022/08/28 06:38:54;;;;;;;21.23;12.48;;;20.80;99.90;;;;;;5069534;28;20711;-61
2022/08/28 06:41:20;;;;;;;22.17;13.65;;;20.50;99.90;;;;;;5068094;28;20399;-61
2022/08/28 06:43:46;;;;;;;20.73;12.55;;;20.50;99.90;;;;;;5050136;28;20432;-56
2022/08/28 06:46:12;;;;;;;23.20;12.93;;;20.50;99.90;;;;;;5067575;28;20387;-62
2022/08/28 06:48:37;;;;;;;23.77;12.75;;;20.50;99.90;;;;;;5068074;28;20838;-61
2022/08/28 06:51:08;;;;;;;21.57;12.13;;;20.60;99.90;;;;;;5067024;28;20503;-62
2022/08/28 06:53:35;;;;;;;19.75;12.40;;;20.40;99.90;;;;;;5068249;28;20474;-62
2022/08/28 06:56:06;;;;;;;21.35;11.95;;;20.20;99.90;;;;;;5067326;28;20394;-63
2022/08/28 06:58:32;;;;;;;20.17;12.15;;;20.10;99.90;;;;;;5067953;28;20384;-61
2022/08/28 07:01:09;;;;;;;19.00;12.70;;;20.00;99.90;;;;;;5067161;28;20380;-61
2022/08/28 07:03:36;;;;;;;24.10;14.90;;;20.00;99.90;;;;;;5067913;28;20467;-64
2022/08/28 07:06:03;;;;;;;21.42;12.48;;;20.30;99.90;;;;;;5048113;28;20474;-62
2022/08/28 07:08:30;;;;;;;20.90;12.57;;;20.60;99.90;;;;;;5068059;28;20470;-64
2022/08/28 07:10:56;;;;;;;21.13;11.95;;;20.80;99.90;;;;;;5067321;28;20408;-62
2022/08/28 07:13:21;;;;;;;21.27;11.90;;;21.00;99.90;;;;;;5070602;28;20494;-62
2022/08/28 07:15:47;;;;;;;17.80;11.55;;;21.20;99.90;;;;;;5087426;28;20382;-57
2022/08/28 07:18:14;;;;;;;17.13;10.63;;;21.30;99.90;;;;;;5088275;28;20381;-62
2022/08/28 07:20:39;;;;;;;21.83;11.40;;;21.50;99.90;;;;;;5088263;28;20393;-62
2022/08/28 07:23:06;;;;;;;20.13;12.47;;;21.50;24.40;;;;;;5087330;28;21013;-63
2022/08/28 07:25:31;;;;;;;17.60;11.32;;;21.50;49.40;;;;;;5087991;28;20401;-64
2022/08/28 07:27:58;;;;;;;22.17;11.50;;;21.60;18.90;;;;;;5086776;28;20879;-63
2022/08/28 07:30:24;;;;;;;20.73;11.73;;;21.60;1.00;;;;;;5087457;28;20398;-62
2022/08/28 07:32:49;;;;;;;20.00;11.07;;;21.40;2.20;;;;;;5087257;28;20416;-57
2022/08/28 07:35:16;;;;;;;17.83;11.27;;;21.40;54.30;;;;;;5088485;28;20413;-64
2022/08/28 07:37:42;;;;;;;20.95;12.00;;;21.40;34.00;;;;;;5087586;28;20367;-62
2022/08/28 07:40:08;;;;;;;20.13;11.65;;;21.30;32.40;;;;;;5087293;28;20370;-62
2022/08/28 07:45:19;;;;;;;16.58;11.20;;;21.00;99.90;;;;;;5088254;28;20470;-62
2022/08/28 07:47:44;;;;;;;19.40;11.87;;;21.10;99.50;;;;;;5088243;28;20926;-62
2022/08/28 07:50:10;;;;;;;21.55;11.63;;;21.40;74.40;;;;;;5087525;28;20374;-62
2022/08/28 07:52:36;;;;;;;20.45;11.32;;;21.50;14.20;;;;;;5087532;28;20402;-62
2022/08/28 07:55:04;;;;;;;19.55;11.50;;;21.40;36.10;;;;;;5087518;28;20435;-63
2022/08/28 07:57:30;;;;;;;18.95;11.32;;;21.50;19.30;;;;;;5088009;28;20390;-62
2022/08/28 08:00:00;;;;;;;17.42;11.70;;;21.90;1.00;;;;;;5086994;28;20390;-62
2022/08/28 08:02:25;;;;;;;19.92;11.10;;;22.20;1.00;;;;;;5087874;28;20425;-63
2022/08/28 08:04:51;;;;;;;17.40;10.90;;;22.30;1.00;;;;;;5087050;28;20402;-62
2022/08/28 08:07:18;;;;;;;19.38;11.30;;;22.40;1.00;;;;;;5087284;28;20382;-62
2022/08/28 08:09:45;;;;;;;18.07;11.73;;;22.10;1.00;;;;;;5087545;28;20807;-63
2022/08/28 08:12:12;;;;;;;19.38;12.40;;;22.10;1.00;;;;;;5087009;28;20405;-63
2022/08/28 08:14:40;;;;;;;16.90;11.35;;;22.10;1.00;;;;;;5074511;28;20423;-63
2022/08/28 08:17:06;;;;;;;17.90;11.43;;;22.40;1.00;;;;;;5067702;28;20452;-62
2022/08/28 08:19:32;;;;;;;21.00;10.45;;;22.80;1.00;;;;;;5071297;28;20387;-63
2022/08/28 08:21:57;;;;;;;16.05;10.55;;;22.90;1.00;;;;;;5070186;28;20411;-63
2022/08/28 08:24:25;;;;;;;18.07;9.90;;;23.10;1.00;;;;;;5052483;28;20430;-63
2022/08/28 08:26:52;;;;;;;17.52;11.25;;;23.20;99.90;;;;;;5070311;28;20391;-58
2022/08/28 08:29:19;;;;;;;18.63;10.60;;;23.50;96.10;;;;;;5070643;28;20454;-62
2022/08/28 08:31:46;;;;;;;17.57;11.40;;;23.40;1.00;;;;;;5070506;28;20407;-63
